sensor_id;sensor_type;location;lat;lon;timestamp;P1;durP1;ratioP1;P2;durP2;ratioP2
33266;SDS011;19638;49.080;11.896;2023-04-25T00:03:45;8.17;;;5.20;;
33266;SDS011;19638;49.080;11.896;2023-04-25T00:07:51;9.43;;;4.60;;
33266;SDS011;19638;49.080;11.896;2023-04-25T00:11:55;8.87;;;5.50;;
33266;SDS011;19638;49.080;11.896;2023-04-25T00:15:58;7.13;;;4.20;;
33266;SDS011;19638;49.080;11.896;2023-04-25T00:20:13;8.93;;;4.50;;
33266;SDS011;19638;49.080;11.896;2023-04-25T00:24:19;10.40;;;4.50;;
33266;SDS011;19638;49.080;11.896;2023-04-25T00:28:22;7.53;;;4.50;;
33266;SDS011;19638;49.080;11.896;2023-04-25T00:32:25;8.50;;;4.33;;
33266;SDS011;19638;49.080;11.896;2023-04-25T00:36:30;7.40;;;5.20;;
33266;SDS011;19638;49.080;11.896;2023-04-25T00:40:38;9.93;;;4.47;;
33266;SDS011;19638;49.080;11.896;2023-04-25T00:44:43;6.07;;;4.43;;
33266;SDS011;19638;49.080;11.896;2023-04-25T00:48:50;4.97;;;3.70;;
33266;SDS011;19638;49.080;11.896;2023-04-25T00:52:57;6.87;;;4.40;;
33266;SDS011;19638;49.080;11.896;2023-04-25T00:57:00;6.40;;;5.20;;
33266;SDS011;19638;49.080;11.896;2023-04-25T01:01:03;5.17;;;4.00;;
33266;SDS011;19638;49.080;11.896;2023-04-25T01:05:08;8.53;;;4.50;;
33266;SDS011;19638;49.080;11.896;2023-04-25T01:09:13;4.33;;;3.77;;
33266;SDS011;19638;49.080;11.896;2023-04-25T01:13:17;4.97;;;3.87;;
33266;SDS011;19638;49.080;11.896;2023-04-25T01:17:21;7.27;;;4.17;;
33266;SDS011;19638;49.080;11.896;2023-04-25T01:21:32;4.33;;;3.67;;
33266;SDS011;19638;49.080;11.896;2023-04-25T01:25:38;3.70;;;3.40;;
33266;SDS011;19638;49.080;11.896;2023-04-25T01:29:42;5.47;;;4.40;;
33266;SDS011;19638;49.080;11.896;2023-04-25T01:33:48;7.13;;;4.00;;
33266;SDS011;19638;49.080;11.896;2023-04-25T01:37:57;7.30;;;3.90;;
33266;SDS011;19638;49.080;11.896;2023-04-25T01:42:02;5.40;;;4.23;;
33266;SDS011;19638;49.080;11.896;2023-04-25T01:46:07;7.77;;;4.10;;
33266;SDS011;19638;49.080;11.896;2023-04-25T01:50:12;8.47;;;4.87;;
33266;SDS011;19638;49.080;11.896;2023-04-25T01:54:24;8.97;;;4.53;;
33266;SDS011;19638;49.080;11.896;2023-04-25T01:58:29;6.87;;;4.63;;
33266;SDS011;19638;49.080;11.896;2023-04-25T02:02:33;6.17;;;4.10;;
33266;SDS011;19638;49.080;11.896;2023-04-25T02:06:38;6.63;;;4.13;;
33266;SDS011;19638;49.080;11.896;2023-04-25T02:10:45;5.80;;;4.13;;
33266;SDS011;19638;49.080;11.896;2023-04-25T02:14:48;10.60;;;4.57;;
33266;SDS011;19638;49.080;11.896;2023-04-25T02:18:51;5.50;;;4.30;;
33266;SDS011;19638;49.080;11.896;2023-04-25T02:22:57;6.47;;;4.53;;
33266;SDS011;19638;49.080;11.896;2023-04-25T02:27:02;6.20;;;4.87;;
33266;SDS011;19638;49.080;11.896;2023-04-25T02:31:06;5.67;;;4.30;;
33266;SDS011;19638;49.080;11.896;2023-04-25T02:35:11;5.73;;;4.10;;
33266;SDS011;19638;49.080;11.896;2023-04-25T02:39:14;6.40;;;4.20;;
33266;SDS011;19638;49.080;11.896;2023-04-25T02:43:20;6.10;;;4.00;;
33266;SDS011;19638;49.080;11.896;2023-04-25T02:47:24;8.23;;;4.10;;
33266;SDS011;19638;49.080;11.896;2023-04-25T02:51:29;6.37;;;4.00;;
33266;SDS011;19638;49.080;11.896;2023-04-25T02:55:38;7.03;;;3.97;;
33266;SDS011;19638;49.080;11.896;2023-04-25T02:59:45;7.73;;;4.30;;
33266;SDS011;19638;49.080;11.896;2023-04-25T03:03:50;5.73;;;3.80;;
33266;SDS011;19638;49.080;11.896;2023-04-25T03:07:56;8.67;;;4.10;;
33266;SDS011;19638;49.080;11.896;2023-04-25T03:11:59;5.57;;;3.90;;
33266;SDS011;19638;49.080;11.896;2023-04-25T03:16:04;5.90;;;3.80;;
33266;SDS011;19638;49.080;11.896;2023-04-25T03:20:08;5.40;;;3.93;;
33266;SDS011;19638;49.080;11.896;2023-04-25T03:24:14;6.37;;;4.37;;
33266;SDS011;19638;49.080;11.896;2023-04-25T03:28:19;6.60;;;4.83;;
33266;SDS011;19638;49.080;11.896;2023-04-25T03:32:24;7.10;;;5.13;;
33266;SDS011;19638;49.080;11.896;2023-04-25T03:36:27;5.60;;;4.10;;
33266;SDS011;19638;49.080;11.896;2023-04-25T03:40:30;5.13;;;4.17;;
33266;SDS011;19638;49.080;11.896;2023-04-25T03:44:36;4.97;;;4.20;;
33266;SDS011;19638;49.080;11.896;2023-04-25T03:48:42;6.80;;;3.90;;
33266;SDS011;19638;49.080;11.896;2023-04-25T03:52:45;7.87;;;4.10;;
33266;SDS011;19638;49.080;11.896;2023-04-25T03:56:48;6.83;;;3.70;;
33266;SDS011;19638;49.080;11.896;2023-04-25T04:00:51;5.97;;;4.40;;
33266;SDS011;19638;49.080;11.896;2023-04-25T04:04:59;5.83;;;3.97;;
33266;SDS011;19638;49.080;11.896;2023-04-25T04:09:03;5.07;;;4.00;;
33266;SDS011;19638;49.080;11.896;2023-04-25T04:13:07;7.30;;;4.37;;
33266;SDS011;19638;49.080;11.896;2023-04-25T04:17:13;7.17;;;3.70;;
33266;SDS011;19638;49.080;11.896;2023-04-25T04:21:19;6.93;;;4.27;;
33266;SDS011;19638;49.080;11.896;2023-04-25T04:25:25;6.80;;;4.23;;
33266;SDS011;19638;49.080;11.896;2023-04-25T04:29:28;6.10;;;4.03;;
33266;SDS011;19638;49.080;11.896;2023-04-25T04:33:34;4.03;;;3.60;;
33266;SDS011;19638;49.080;11.896;2023-04-25T04:37:39;4.30;;;3.90;;
33266;SDS011;19638;49.080;11.896;2023-04-25T04:41:42;6.80;;;3.90;;
33266;SDS011;19638;49.080;11.896;2023-04-25T04:45:45;5.33;;;3.90;;
33266;SDS011;19638;49.080;11.896;2023-04-25T04:49:49;4.70;;;3.70;;
33266;SDS011;19638;49.080;11.896;2023-04-25T04:53:53;6.00;;;4.87;;
33266;SDS011;19638;49.080;11.896;2023-04-25T04:57:59;5.63;;;3.90;;
33266;SDS011;19638;49.080;11.896;2023-04-25T05:02:02;4.23;;;3.83;;
33266;SDS011;19638;49.080;11.896;2023-04-25T05:06:05;7.97;;;4.27;;
33266;SDS011;19638;49.080;11.896;2023-04-25T05:10:14;4.10;;;3.70;;
33266;SDS011;19638;49.080;11.896;2023-04-25T05:14:17;7.10;;;4.20;;
33266;SDS011;19638;49.080;11.896;2023-04-25T05:18:21;5.67;;;4.20;;
33266;SDS011;19638;49.080;11.896;2023-04-25T05:22:28;8.93;;;4.67;;
33266;SDS011;19638;49.080;11.896;2023-04-25T05:26:32;7.07;;;4.27;;
33266;SDS011;19638;49.080;11.896;2023-04-25T05:30:37;4.63;;;3.33;;
33266;SDS011;19638;49.080;11.896;2023-04-25T05:34:40;6.93;;;3.53;;
33266;SDS011;19638;49.080;11.896;2023-04-25T05:38:43;4.78;;;3.90;;
33266;SDS011;19638;49.080;11.896;2023-04-25T05:42:48;3.47;;;3.17;;
33266;SDS011;19638;49.080;11.896;2023-04-25T05:46:51;5.00;;;3.65;;
33266;SDS011;19638;49.080;11.896;2023-04-25T05:50:54;3.80;;;3.50;;
33266;SDS011;19638;49.080;11.896;2023-04-25T05:54:57;3.73;;;3.43;;
33266;SDS011;19638;49.080;11.896;2023-04-25T05:59:04;3.70;;;3.38;;
33266;SDS011;19638;49.080;11.896;2023-04-25T06:03:12;4.07;;;3.67;;
33266;SDS011;19638;49.080;11.896;2023-04-25T06:07:20;4.53;;;3.40;;
33266;SDS011;19638;49.080;11.896;2023-04-25T06:11:26;5.57;;;3.30;;
33266;SDS011;19638;49.080;11.896;2023-04-25T06:15:31;4.43;;;3.58;;
33266;SDS011;19638;49.080;11.896;2023-04-25T06:19:37;6.13;;;3.80;;
33266;SDS011;19638;49.080;11.896;2023-04-25T06:23:41;3.97;;;3.58;;
33266;SDS011;19638;49.080;11.896;2023-04-25T06:27:46;5.10;;;3.73;;
33266;SDS011;19638;49.080;11.896;2023-04-25T06:31:52;4.30;;;3.75;;
33266;SDS011;19638;49.080;11.896;2023-04-25T06:35:55;4.85;;;3.90;;
33266;SDS011;19638;49.080;11.896;2023-04-25T06:39:59;7.00;;;3.85;;
33266;SDS011;19638;49.080;11.896;2023-04-25T06:44:06;6.07;;;3.63;;
33266;SDS011;19638;49.080;11.896;2023-04-25T06:48:13;6.78;;;3.83;;
33266;SDS011;19638;49.080;11.896;2023-04-25T06:52:17;4.05;;;3.63;;
33266;SDS011;19638;49.080;11.896;2023-04-25T06:56:20;6.40;;;4.05;;
33266;SDS011;19638;49.080;11.896;2023-04-25T07:00:24;6.28;;;4.07;;
33266;SDS011;19638;49.080;11.896;2023-04-25T07:04:29;3.97;;;3.58;;
33266;SDS011;19638;49.080;11.896;2023-04-25T07:08:35;4.50;;;3.42;;
33266;SDS011;19638;49.080;11.896;2023-04-25T07:12:38;4.82;;;3.60;;
33266;SDS011;19638;49.080;11.896;2023-04-25T07:16:44;5.70;;;3.78;;
33266;SDS011;19638;49.080;11.896;2023-04-25T07:20:49;6.25;;;3.58;;
33266;SDS011;19638;49.080;11.896;2023-04-25T07:24:52;4.32;;;3.42;;
33266;SDS011;19638;49.080;11.896;2023-04-25T07:28:57;3.40;;;3.10;;
33266;SDS011;19638;49.080;11.896;2023-04-25T07:33:00;5.22;;;3.55;;
33266;SDS011;19638;49.080;11.896;2023-04-25T07:37:05;3.30;;;3.00;;
33266;SDS011;19638;49.080;11.896;2023-04-25T07:41:10;4.78;;;3.45;;
33266;SDS011;19638;49.080;11.896;2023-04-25T07:45:13;3.35;;;3.05;;
33266;SDS011;19638;49.080;11.896;2023-04-25T07:49:19;3.88;;;3.58;;
33266;SDS011;19638;49.080;11.896;2023-04-25T07:53:26;4.65;;;3.15;;
33266;SDS011;19638;49.080;11.896;2023-04-25T07:57:32;3.00;;;2.78;;
33266;SDS011;19638;49.080;11.896;2023-04-25T08:01:37;3.50;;;2.97;;
33266;SDS011;19638;49.080;11.896;2023-04-25T08:05:40;3.92;;;3.10;;
33266;SDS011;19638;49.080;11.896;2023-04-25T08:09:47;4.65;;;3.15;;
33266;SDS011;19638;49.080;11.896;2023-04-25T08:13:50;3.42;;;3.13;;
33266;SDS011;19638;49.080;11.896;2023-04-25T08:17:58;4.05;;;3.47;;
33266;SDS011;19638;49.080;11.896;2023-04-25T08:22:02;3.35;;;3.03;;
33266;SDS011;19638;49.080;11.896;2023-04-25T08:26:08;3.45;;;3.05;;
33266;SDS011;19638;49.080;11.896;2023-04-25T08:30:12;3.10;;;2.90;;
33266;SDS011;19638;49.080;11.896;2023-04-25T08:34:15;4.53;;;3.30;;
33266;SDS011;19638;49.080;11.896;2023-04-25T08:38:18;3.40;;;3.13;;
33266;SDS011;19638;49.080;11.896;2023-04-25T08:42:25;3.95;;;3.55;;
33266;SDS011;19638;49.080;11.896;2023-04-25T08:46:42;3.75;;;3.45;;
33266;SDS011;19638;49.080;11.896;2023-04-25T08:50:54;4.05;;;3.55;;
33266;SDS011;19638;49.080;11.896;2023-04-25T08:54:59;4.18;;;3.78;;
33266;SDS011;19638;49.080;11.896;2023-04-25T08:59:11;4.20;;;3.10;;
33266;SDS011;19638;49.080;11.896;2023-04-25T09:03:14;4.28;;;3.20;;
33266;SDS011;19638;49.080;11.896;2023-04-25T09:07:21;3.58;;;3.28;;
33266;SDS011;19638;49.080;11.896;2023-04-25T09:11:24;4.75;;;4.05;;
33266;SDS011;19638;49.080;11.896;2023-04-25T09:15:28;5.38;;;3.78;;
33266;SDS011;19638;49.080;11.896;2023-04-25T09:19:32;4.40;;;4.00;;
33266;SDS011;19638;49.080;11.896;2023-04-25T09:23:40;3.63;;;3.33;;
33266;SDS011;19638;49.080;11.896;2023-04-25T09:27:53;4.28;;;3.33;;
33266;SDS011;19638;49.080;11.896;2023-04-25T09:32:14;3.92;;;3.53;;
33266;SDS011;19638;49.080;11.896;2023-04-25T09:36:19;3.20;;;2.90;;
33266;SDS011;19638;49.080;11.896;2023-04-25T09:40:32;3.45;;;3.15;;
33266;SDS011;19638;49.080;11.896;2023-04-25T09:44:35;3.97;;;3.55;;
33266;SDS011;19638;49.080;11.896;2023-04-25T09:48:43;4.28;;;3.80;;
33266;SDS011;19638;49.080;11.896;2023-04-25T09:53:08;6.07;;;4.45;;
33266;SDS011;19638;49.080;11.896;2023-04-25T09:57:14;6.07;;;4.70;;
33266;SDS011;19638;49.080;11.896;2023-04-25T10:01:18;6.60;;;4.28;;
33266;SDS011;19638;49.080;11.896;2023-04-25T10:05:25;7.32;;;5.82;;
33266;SDS011;19638;49.080;11.896;2023-04-25T10:09:36;7.40;;;5.25;;
33266;SDS011;19638;49.080;11.896;2023-04-25T10:13:40;8.48;;;4.93;;
33266;SDS011;19638;49.080;11.896;2023-04-25T10:17:45;7.85;;;4.53;;
33266;SDS011;19638;49.080;11.896;2023-04-25T10:21:52;7.50;;;4.97;;
33266;SDS011;19638;49.080;11.896;2023-04-25T10:26:04;5.50;;;4.43;;
33266;SDS011;19638;49.080;11.896;2023-04-25T10:30:09;4.72;;;3.90;;
33266;SDS011;19638;49.080;11.896;2023-04-25T10:34:17;2.83;;;2.60;;
33266;SDS011;19638;49.080;11.896;2023-04-25T10:38:25;2.92;;;2.72;;
33266;SDS011;19638;49.080;11.896;2023-04-25T10:42:28;4.55;;;2.72;;
33266;SDS011;19638;49.080;11.896;2023-04-25T10:46:32;3.15;;;2.85;;
33266;SDS011;19638;49.080;11.896;2023-04-25T10:50:42;3.03;;;2.83;;
33266;SDS011;19638;49.080;11.896;2023-04-25T10:54:51;4.72;;;2.75;;
33266;SDS011;19638;49.080;11.896;2023-04-25T10:59:05;2.60;;;2.20;;
33266;SDS011;19638;49.080;11.896;2023-04-25T11:03:15;2.80;;;2.45;;
33266;SDS011;19638;49.080;11.896;2023-04-25T11:07:20;3.15;;;2.85;;
33266;SDS011;19638;49.080;11.896;2023-04-25T11:11:33;3.75;;;2.70;;
33266;SDS011;19638;49.080;11.896;2023-04-25T11:15:39;3.22;;;2.65;;
33266;SDS011;19638;49.080;11.896;2023-04-25T11:19:42;3.65;;;3.00;;
33266;SDS011;19638;49.080;11.896;2023-04-25T11:23:46;3.03;;;2.75;;
33266;SDS011;19638;49.080;11.896;2023-04-25T11:27:51;3.63;;;2.90;;
33266;SDS011;19638;49.080;11.896;2023-04-25T11:31:54;4.72;;;3.15;;
33266;SDS011;19638;49.080;11.896;2023-04-25T11:36:01;2.78;;;2.58;;
33266;SDS011;19638;49.080;11.896;2023-04-25T11:40:05;2.85;;;2.65;;
33266;SDS011;19638;49.080;11.896;2023-04-25T11:44:16;3.63;;;2.95;;
33266;SDS011;19638;49.080;11.896;2023-04-25T11:48:20;3.70;;;3.15;;
33266;SDS011;19638;49.080;11.896;2023-04-25T11:52:35;2.78;;;2.50;;
33266;SDS011;19638;49.080;11.896;2023-04-25T11:56:40;2.97;;;2.70;;
33266;SDS011;19638;49.080;11.896;2023-04-25T12:00:46;3.15;;;2.80;;
33266;SDS011;19638;49.080;11.896;2023-04-25T12:04:53;2.58;;;2.20;;
33266;SDS011;19638;49.080;11.896;2023-04-25T12:09:27;3.30;;;2.92;;
33266;SDS011;19638;49.080;11.896;2023-04-25T12:13:31;3.15;;;2.85;;
33266;SDS011;19638;49.080;11.896;2023-04-25T12:17:36;5.28;;;2.80;;
33266;SDS011;19638;49.080;11.896;2023-04-25T12:21:40;4.38;;;2.60;;
33266;SDS011;19638;49.080;11.896;2023-04-25T12:25:59;2.67;;;2.42;;
33266;SDS011;19638;49.080;11.896;2023-04-25T12:30:07;2.40;;;2.20;;
33266;SDS011;19638;49.080;11.896;2023-04-25T12:34:13;2.83;;;2.63;;
33266;SDS011;19638;49.080;11.896;2023-04-25T12:38:23;3.65;;;2.42;;
33266;SDS011;19638;49.080;11.896;2023-04-25T12:42:29;2.60;;;2.40;;
33266;SDS011;19638;49.080;11.896;2023-04-25T12:46:32;3.58;;;2.72;;
33266;SDS011;19638;49.080;11.896;2023-04-25T12:50:41;3.08;;;2.75;;
33266;SDS011;19638;49.080;11.896;2023-04-25T12:54:45;7.22;;;3.75;;
33266;SDS011;19638;49.080;11.896;2023-04-25T12:58:48;4.82;;;2.95;;
33266;SDS011;19638;49.080;11.896;2023-04-25T13:02:51;9.00;;;3.60;;
33266;SDS011;19638;49.080;11.896;2023-04-25T13:06:58;4.97;;;3.50;;
33266;SDS011;19638;49.080;11.896;2023-04-25T13:11:01;4.07;;;3.55;;
33266;SDS011;19638;49.080;11.896;2023-04-25T13:15:07;5.53;;;3.60;;
33266;SDS011;19638;49.080;11.896;2023-04-25T13:19:12;3.40;;;3.10;;
33266;SDS011;19638;49.080;11.896;2023-04-25T13:23:19;7.75;;;3.50;;
33266;SDS011;19638;49.080;11.896;2023-04-25T13:27:22;5.53;;;3.00;;
33266;SDS011;19638;49.080;11.896;2023-04-25T13:31:42;4.78;;;2.65;;
33266;SDS011;19638;49.080;11.896;2023-04-25T13:35:45;5.00;;;2.70;;
33266;SDS011;19638;49.080;11.896;2023-04-25T13:39:56;3.45;;;2.60;;
33266;SDS011;19638;49.080;11.896;2023-04-25T13:43:59;2.35;;;2.15;;
33266;SDS011;19638;49.080;11.896;2023-04-25T13:48:02;9.60;;;2.67;;
33266;SDS011;19638;49.080;11.896;2023-04-25T13:52:05;3.33;;;2.45;;
33266;SDS011;19638;49.080;11.896;2023-04-25T13:56:10;2.53;;;2.33;;
33266;SDS011;19638;49.080;11.896;2023-04-25T14:00:16;2.30;;;2.10;;
33266;SDS011;19638;49.080;11.896;2023-04-25T14:04:20;2.33;;;2.13;;
33266;SDS011;19638;49.080;11.896;2023-04-25T14:08:26;2.17;;;2.00;;
33266;SDS011;19638;49.080;11.896;2023-04-25T14:12:31;3.80;;;2.20;;
33266;SDS011;19638;49.080;11.896;2023-04-25T14:16:36;2.58;;;2.10;;
33266;SDS011;19638;49.080;11.896;2023-04-25T14:20:40;2.15;;;1.98;;
33266;SDS011;19638;49.080;11.896;2023-04-25T14:24:43;2.25;;;1.95;;
33266;SDS011;19638;49.080;11.896;2023-04-25T14:28:48;3.20;;;1.50;;
33266;SDS011;19638;49.080;11.896;2023-04-25T14:32:51;1.85;;;1.70;;
33266;SDS011;19638;49.080;11.896;2023-04-25T14:36:54;2.28;;;1.67;;
33266;SDS011;19638;49.080;11.896;2023-04-25T14:40:58;1.67;;;1.58;;
33266;SDS011;19638;49.080;11.896;2023-04-25T14:45:04;1.60;;;1.60;;
33266;SDS011;19638;49.080;11.896;2023-04-25T14:49:09;2.25;;;1.67;;
33266;SDS011;19638;49.080;11.896;2023-04-25T14:53:16;2.45;;;2.00;;
33266;SDS011;19638;49.080;11.896;2023-04-25T14:57:20;3.65;;;1.77;;
33266;SDS011;19638;49.080;11.896;2023-04-25T15:01:25;1.52;;;1.52;;
33266;SDS011;19638;49.080;11.896;2023-04-25T15:05:28;2.08;;;1.88;;
33266;SDS011;19638;49.080;11.896;2023-04-25T15:09:32;2.20;;;1.80;;
33266;SDS011;19638;49.080;11.896;2023-04-25T15:13:38;1.95;;;1.75;;
33266;SDS011;19638;49.080;11.896;2023-04-25T15:17:43;2.08;;;1.70;;
33266;SDS011;19638;49.080;11.896;2023-04-25T15:21:49;1.92;;;1.83;;
33266;SDS011;19638;49.080;11.896;2023-04-25T15:25:52;2.42;;;2.05;;
33266;SDS011;19638;49.080;11.896;2023-04-25T15:29:55;1.90;;;1.80;;
33266;SDS011;19638;49.080;11.896;2023-04-25T15:34:02;2.03;;;1.90;;
33266;SDS011;19638;49.080;11.896;2023-04-25T15:38:12;2.35;;;2.15;;
33266;SDS011;19638;49.080;11.896;2023-04-25T15:42:15;2.28;;;2.08;;
33266;SDS011;19638;49.080;11.896;2023-04-25T15:46:18;2.42;;;2.22;;
33266;SDS011;19638;49.080;11.896;2023-04-25T15:50:23;2.85;;;2.05;;
33266;SDS011;19638;49.080;11.896;2023-04-25T15:54:27;2.42;;;2.17;;
33266;SDS011;19638;49.080;11.896;2023-04-25T15:58:34;2.88;;;2.05;;
33266;SDS011;19638;49.080;11.896;2023-04-25T16:02:38;2.40;;;2.08;;
33266;SDS011;19638;49.080;11.896;2023-04-25T16:06:45;4.75;;;2.30;;
33266;SDS011;19638;49.080;11.896;2023-04-25T16:10:49;3.67;;;2.20;;
33266;SDS011;19638;49.080;11.896;2023-04-25T16:14:53;2.35;;;2.00;;
33266;SDS011;19638;49.080;11.896;2023-04-25T16:18:59;2.88;;;2.22;;
33266;SDS011;19638;49.080;11.896;2023-04-25T16:23:06;2.72;;;2.38;;
33266;SDS011;19638;49.080;11.896;2023-04-25T16:27:11;2.78;;;2.28;;
33266;SDS011;19638;49.080;11.896;2023-04-25T16:31:15;2.80;;;2.45;;
33266;SDS011;19638;49.080;11.896;2023-04-25T16:35:18;3.17;;;2.25;;
33266;SDS011;19638;49.080;11.896;2023-04-25T16:39:25;4.10;;;2.42;;
33266;SDS011;19638;49.080;11.896;2023-04-25T16:43:28;2.90;;;2.30;;
33266;SDS011;19638;49.080;11.896;2023-04-25T16:47:32;2.70;;;2.40;;
33266;SDS011;19638;49.080;11.896;2023-04-25T16:51:36;2.30;;;2.10;;
33266;SDS011;19638;49.080;11.896;2023-04-25T16:55:40;2.40;;;2.20;;
33266;SDS011;19638;49.080;11.896;2023-04-25T16:59:46;2.92;;;2.55;;
33266;SDS011;19638;49.080;11.896;2023-04-25T17:03:54;2.53;;;2.33;;
33266;SDS011;19638;49.080;11.896;2023-04-25T17:08:01;2.75;;;2.50;;
33266;SDS011;19638;49.080;11.896;2023-04-25T17:12:05;4.93;;;2.47;;
33266;SDS011;19638;49.080;11.896;2023-04-25T17:16:09;2.65;;;2.40;;
33266;SDS011;19638;49.080;11.896;2023-04-25T17:20:14;4.20;;;2.40;;
33266;SDS011;19638;49.080;11.896;2023-04-25T17:24:17;2.70;;;2.22;;
33266;SDS011;19638;49.080;11.896;2023-04-25T17:28:23;3.00;;;2.70;;
33266;SDS011;19638;49.080;11.896;2023-04-25T17:32:27;4.70;;;2.70;;
33266;SDS011;19638;49.080;11.896;2023-04-25T17:36:33;4.65;;;2.97;;
33266;SDS011;19638;49.080;11.896;2023-04-25T17:40:37;5.68;;;2.97;;
33266;SDS011;19638;49.080;11.896;2023-04-25T17:44:42;5.60;;;2.85;;
33266;SDS011;19638;49.080;11.896;2023-04-25T17:48:45;6.72;;;3.45;;
33266;SDS011;19638;49.080;11.896;2023-04-25T17:52:49;3.53;;;3.03;;
33266;SDS011;19638;49.080;11.896;2023-04-25T17:56:53;3.15;;;2.47;;
33266;SDS011;19638;49.080;11.896;2023-04-25T18:00:57;3.95;;;3.10;;
33266;SDS011;19638;49.080;11.896;2023-04-25T18:05:00;4.90;;;3.17;;
33266;SDS011;19638;49.080;11.896;2023-04-25T18:09:11;5.50;;;3.47;;
33266;SDS011;19638;49.080;11.896;2023-04-25T18:13:20;5.63;;;3.67;;
33266;SDS011;19638;49.080;11.896;2023-04-25T18:17:27;6.97;;;3.60;;
33266;SDS011;19638;49.080;11.896;2023-04-25T18:21:31;3.92;;;3.33;;
33266;SDS011;19638;49.080;11.896;2023-04-25T18:25:35;5.07;;;3.28;;
33266;SDS011;19638;49.080;11.896;2023-04-25T18:29:42;3.85;;;2.95;;
33266;SDS011;19638;49.080;11.896;2023-04-25T18:33:47;8.47;;;3.47;;
33266;SDS011;19638;49.080;11.896;2023-04-25T18:37:51;5.00;;;2.90;;
33266;SDS011;19638;49.080;11.896;2023-04-25T18:41:54;3.22;;;2.65;;
33266;SDS011;19638;49.080;11.896;2023-04-25T18:46:06;5.13;;;3.00;;
33266;SDS011;19638;49.080;11.896;2023-04-25T18:50:11;4.57;;;2.80;;
33266;SDS011;19638;49.080;11.896;2023-04-25T18:54:20;6.20;;;3.07;;
33266;SDS011;19638;49.080;11.896;2023-04-25T18:58:23;4.40;;;3.13;;
33266;SDS011;19638;49.080;11.896;2023-04-25T19:02:29;5.40;;;3.08;;
33266;SDS011;19638;49.080;11.896;2023-04-25T19:06:37;4.80;;;2.83;;
33266;SDS011;19638;49.080;11.896;2023-04-25T19:10:42;3.88;;;2.95;;
33266;SDS011;19638;49.080;11.896;2023-04-25T19:14:46;7.13;;;2.97;;
33266;SDS011;19638;49.080;11.896;2023-04-25T19:18:52;3.92;;;2.90;;
33266;SDS011;19638;49.080;11.896;2023-04-25T19:23:04;3.50;;;2.95;;
33266;SDS011;19638;49.080;11.896;2023-04-25T19:27:09;3.47;;;2.40;;
33266;SDS011;19638;49.080;11.896;2023-04-25T19:31:12;4.63;;;2.70;;
33266;SDS011;19638;49.080;11.896;2023-04-25T19:35:19;3.47;;;3.03;;
33266;SDS011;19638;49.080;11.896;2023-04-25T19:39:29;4.10;;;3.10;;
33266;SDS011;19638;49.080;11.896;2023-04-25T19:43:35;3.70;;;2.87;;
33266;SDS011;19638;49.080;11.896;2023-04-25T19:47:39;4.00;;;3.20;;
33266;SDS011;19638;49.080;11.896;2023-04-25T19:51:42;3.97;;;2.83;;
33266;SDS011;19638;49.080;11.896;2023-04-25T19:55:50;3.20;;;2.90;;
33266;SDS011;19638;49.080;11.896;2023-04-25T19:59:55;5.63;;;3.20;;
33266;SDS011;19638;49.080;11.896;2023-04-25T20:03:58;15.70;;;3.13;;
33266;SDS011;19638;49.080;11.896;2023-04-25T20:08:03;4.33;;;3.00;;
33266;SDS011;19638;49.080;11.896;2023-04-25T20:12:08;3.47;;;3.00;;
33266;SDS011;19638;49.080;11.896;2023-04-25T20:16:13;7.13;;;3.00;;
33266;SDS011;19638;49.080;11.896;2023-04-25T20:20:25;6.50;;;3.23;;
33266;SDS011;19638;49.080;11.896;2023-04-25T20:24:31;5.23;;;3.20;;
33266;SDS011;19638;49.080;11.896;2023-04-25T20:28:39;8.37;;;3.63;;
33266;SDS011;19638;49.080;11.896;2023-04-25T20:32:45;6.37;;;3.60;;
33266;SDS011;19638;49.080;11.896;2023-04-25T20:36:48;5.67;;;3.13;;
33266;SDS011;19638;49.080;11.896;2023-04-25T20:40:54;6.50;;;3.53;;
33266;SDS011;19638;49.080;11.896;2023-04-25T20:44:58;3.50;;;3.03;;
33266;SDS011;19638;49.080;11.896;2023-04-25T20:49:04;5.60;;;3.70;;
33266;SDS011;19638;49.080;11.896;2023-04-25T20:53:08;4.33;;;3.33;;
33266;SDS011;19638;49.080;11.896;2023-04-25T20:57:11;7.33;;;4.10;;
33266;SDS011;19638;49.080;11.896;2023-04-25T21:01:15;6.80;;;4.03;;
33266;SDS011;19638;49.080;11.896;2023-04-25T21:05:21;7.40;;;3.93;;
33266;SDS011;19638;49.080;11.896;2023-04-25T21:09:25;9.73;;;4.40;;
33266;SDS011;19638;49.080;11.896;2023-04-25T21:13:30;5.60;;;3.60;;
33266;SDS011;19638;49.080;11.896;2023-04-25T21:17:43;6.10;;;3.70;;
33266;SDS011;19638;49.080;11.896;2023-04-25T21:21:47;8.57;;;4.43;;
33266;SDS011;19638;49.080;11.896;2023-04-25T21:25:53;6.50;;;3.70;;
33266;SDS011;19638;49.080;11.896;2023-04-25T21:29:57;9.93;;;3.80;;
33266;SDS011;19638;49.080;11.896;2023-04-25T21:34:03;7.47;;;4.03;;
33266;SDS011;19638;49.080;11.896;2023-04-25T21:38:12;5.47;;;3.57;;
33266;SDS011;19638;49.080;11.896;2023-04-25T21:42:18;9.23;;;4.10;;
33266;SDS011;19638;49.080;11.896;2023-04-25T21:46:24;5.87;;;3.83;;
33266;SDS011;19638;49.080;11.896;2023-04-25T21:50:31;6.33;;;3.87;;
33266;SDS011;19638;49.080;11.896;2023-04-25T21:54:35;8.13;;;4.07;;
33266;SDS011;19638;49.080;11.896;2023-04-25T21:58:38;7.67;;;4.33;;
33266;SDS011;19638;49.080;11.896;2023-04-25T22:02:43;6.60;;;4.10;;
33266;SDS011;19638;49.080;11.896;2023-04-25T22:06:50;7.93;;;3.80;;
33266;SDS011;19638;49.080;11.896;2023-04-25T22:10:58;7.30;;;4.10;;
33266;SDS011;19638;49.080;11.896;2023-04-25T22:15:03;11.67;;;4.00;;
33266;SDS011;19638;49.080;11.896;2023-04-25T22:19:12;7.17;;;3.93;;
33266;SDS011;19638;49.080;11.896;2023-04-25T22:23:16;9.10;;;3.97;;
33266;SDS011;19638;49.080;11.896;2023-04-25T22:27:21;9.38;;;4.22;;
33266;SDS011;19638;49.080;11.896;2023-04-25T22:31:24;6.93;;;3.73;;
33266;SDS011;19638;49.080;11.896;2023-04-25T22:35:30;12.60;;;4.83;;
33266;SDS011;19638;49.080;11.896;2023-04-25T22:39:34;4.70;;;3.67;;
33266;SDS011;19638;49.080;11.896;2023-04-25T22:43:38;10.77;;;4.57;;
33266;SDS011;19638;49.080;11.896;2023-04-25T22:47:44;8.83;;;4.30;;
33266;SDS011;19638;49.080;11.896;2023-04-25T22:51:50;8.67;;;4.30;;
33266;SDS011;19638;49.080;11.896;2023-04-25T22:55:57;5.83;;;4.13;;
33266;SDS011;19638;49.080;11.896;2023-04-25T23:00:00;9.40;;;4.60;;
33266;SDS011;19638;49.080;11.896;2023-04-25T23:04:16;8.13;;;3.90;;
33266;SDS011;19638;49.080;11.896;2023-04-25T23:08:20;15.00;;;4.80;;
33266;SDS011;19638;49.080;11.896;2023-04-25T23:12:25;8.30;;;4.17;;
33266;SDS011;19638;49.080;11.896;2023-04-25T23:16:29;12.00;;;4.57;;
33266;SDS011;19638;49.080;11.896;2023-04-25T23:20:36;10.00;;;4.87;;
33266;SDS011;19638;49.080;11.896;2023-04-25T23:24:43;7.27;;;3.70;;
33266;SDS011;19638;49.080;11.896;2023-04-25T23:28:49;10.77;;;4.20;;
33266;SDS011;19638;49.080;11.896;2023-04-25T23:32:52;10.37;;;4.30;;
33266;SDS011;19638;49.080;11.896;2023-04-25T23:36:58;10.20;;;4.33;;
33266;SDS011;19638;49.080;11.896;2023-04-25T23:41:02;6.27;;;4.30;;
33266;SDS011;19638;49.080;11.896;2023-04-25T23:45:14;6.40;;;4.10;;
33266;SDS011;19638;49.080;11.896;2023-04-25T23:49:20;16.33;;;5.33;;
33266;SDS011;19638;49.080;11.896;2023-04-25T23:53:27;9.33;;;4.60;;
33266;SDS011;19638;49.080;11.896;2023-04-25T23:57:32;8.87;;;4.63;;
